sensor_id;sensor_type;location;lat;lon;timestamp;P1;durP1;ratioP1;P2;durP2;ratioP2
36855;SDS011;22788;51.434;6.786;2022-07-29T00:01:43;3.33;;;1.50;;
36855;SDS011;22788;51.434;6.786;2022-07-29T00:04:10;5.32;;;1.73;;
36855;SDS011;22788;51.434;6.786;2022-07-29T00:06:36;2.22;;;1.55;;
36855;SDS011;22788;51.434;6.786;2022-07-29T00:09:03;4.78;;;1.50;;
36855;SDS011;22788;51.434;6.786;2022-07-29T00:11:29;2.33;;;1.35;;
36855;SDS011;22788;51.434;6.786;2022-07-29T00:13:57;3.72;;;1.73;;
36855;SDS011;22788;51.434;6.786;2022-07-29T00:16:23;3.80;;;1.88;;
36855;SDS011;22788;51.434;6.786;2022-07-29T00:18:49;3.40;;;1.90;;
36855;SDS011;22788;51.434;6.786;2022-07-29T00:21:16;2.47;;;1.50;;
36855;SDS011;22788;51.434;6.786;2022-07-29T00:23:42;3.70;;;1.70;;
36855;SDS011;22788;51.434;6.786;2022-07-29T00:26:09;2.75;;;1.40;;
36855;SDS011;22788;51.434;6.786;2022-07-29T00:28:35;3.50;;;1.70;;
36855;SDS011;22788;51.434;6.786;2022-07-29T00:31:03;1.90;;;1.58;;
36855;SDS011;22788;51.434;6.786;2022-07-29T00:33:29;2.88;;;1.80;;
36855;SDS011;22788;51.434;6.786;2022-07-29T00:35:56;3.28;;;1.38;;
36855;SDS011;22788;51.434;6.786;2022-07-29T00:38:22;4.07;;;1.80;;
36855;SDS011;22788;51.434;6.786;2022-07-29T00:40:48;3.25;;;1.70;;
36855;SDS011;22788;51.434;6.786;2022-07-29T00:43:15;1.80;;;1.27;;
36855;SDS011;22788;51.434;6.786;2022-07-29T00:45:41;4.50;;;1.73;;
36855;SDS011;22788;51.434;6.786;2022-07-29T00:48:09;2.40;;;1.27;;
36855;SDS011;22788;51.434;6.786;2022-07-29T00:50:36;3.05;;;1.55;;
36855;SDS011;22788;51.434;6.786;2022-07-29T00:53:03;2.25;;;1.40;;
36855;SDS011;22788;51.434;6.786;2022-07-29T00:55:30;6.88;;;1.73;;
36855;SDS011;22788;51.434;6.786;2022-07-29T00:57:56;1.42;;;1.30;;
36855;SDS011;22788;51.434;6.786;2022-07-29T01:00:24;1.88;;;1.40;;
36855;SDS011;22788;51.434;6.786;2022-07-29T01:02:51;3.17;;;1.70;;
36855;SDS011;22788;51.434;6.786;2022-07-29T01:05:20;2.50;;;1.30;;
36855;SDS011;22788;51.434;6.786;2022-07-29T01:07:47;2.92;;;1.42;;
36855;SDS011;22788;51.434;6.786;2022-07-29T01:10:14;3.70;;;1.60;;
36855;SDS011;22788;51.434;6.786;2022-07-29T01:12:42;2.60;;;1.33;;
36855;SDS011;22788;51.434;6.786;2022-07-29T01:15:09;2.78;;;1.40;;
36855;SDS011;22788;51.434;6.786;2022-07-29T01:17:36;3.83;;;1.80;;
36855;SDS011;22788;51.434;6.786;2022-07-29T01:20:06;1.65;;;1.25;;
36855;SDS011;22788;51.434;6.786;2022-07-29T01:22:41;2.45;;;1.45;;
36855;SDS011;22788;51.434;6.786;2022-07-29T01:25:13;3.60;;;1.65;;
36855;SDS011;22788;51.434;6.786;2022-07-29T01:27:46;3.65;;;1.70;;
36855;SDS011;22788;51.434;6.786;2022-07-29T01:30:16;4.60;;;1.77;;
36855;SDS011;22788;51.434;6.786;2022-07-29T01:32:42;3.90;;;1.55;;
36855;SDS011;22788;51.434;6.786;2022-07-29T01:35:15;2.20;;;1.38;;
36855;SDS011;22788;51.434;6.786;2022-07-29T01:37:43;1.98;;;1.42;;
36855;SDS011;22788;51.434;6.786;2022-07-29T01:40:20;2.58;;;1.27;;
36855;SDS011;22788;51.434;6.786;2022-07-29T01:42:48;6.55;;;1.60;;
36855;SDS011;22788;51.434;6.786;2022-07-29T01:45:18;5.97;;;1.40;;
36855;SDS011;22788;51.434;6.786;2022-07-29T01:47:49;2.10;;;1.60;;
36855;SDS011;22788;51.434;6.786;2022-07-29T01:50:19;2.92;;;1.35;;
36855;SDS011;22788;51.434;6.786;2022-07-29T01:52:47;2.08;;;1.65;;
36855;SDS011;22788;51.434;6.786;2022-07-29T01:55:16;2.50;;;1.45;;
36855;SDS011;22788;51.434;6.786;2022-07-29T01:57:44;1.70;;;1.27;;
36855;SDS011;22788;51.434;6.786;2022-07-29T02:00:12;3.28;;;1.48;;
36855;SDS011;22788;51.434;6.786;2022-07-29T02:02:40;1.85;;;1.30;;
36855;SDS011;22788;51.434;6.786;2022-07-29T02:05:08;3.08;;;1.63;;
36855;SDS011;22788;51.434;6.786;2022-07-29T02:07:36;2.15;;;1.40;;
36855;SDS011;22788;51.434;6.786;2022-07-29T02:10:03;2.25;;;1.50;;
36855;SDS011;22788;51.434;6.786;2022-07-29T02:12:30;3.20;;;1.25;;
36855;SDS011;22788;51.434;6.786;2022-07-29T02:14:59;5.75;;;2.05;;
36855;SDS011;22788;51.434;6.786;2022-07-29T02:17:27;4.57;;;1.48;;
36855;SDS011;22788;51.434;6.786;2022-07-29T02:19:57;2.97;;;1.73;;
36855;SDS011;22788;51.434;6.786;2022-07-29T02:22:25;2.90;;;1.48;;
36855;SDS011;22788;51.434;6.786;2022-07-29T02:24:52;3.63;;;1.70;;
36855;SDS011;22788;51.434;6.786;2022-07-29T02:27:19;4.57;;;1.60;;
36855;SDS011;22788;51.434;6.786;2022-07-29T02:29:46;2.47;;;1.35;;
36855;SDS011;22788;51.434;6.786;2022-07-29T02:32:13;4.28;;;1.40;;
36855;SDS011;22788;51.434;6.786;2022-07-29T02:34:40;2.00;;;1.45;;
36855;SDS011;22788;51.434;6.786;2022-07-29T02:37:09;3.10;;;1.38;;
36855;SDS011;22788;51.434;6.786;2022-07-29T02:39:36;4.28;;;1.65;;
36855;SDS011;22788;51.434;6.786;2022-07-29T02:42:03;3.03;;;1.80;;
36855;SDS011;22788;51.434;6.786;2022-07-29T02:44:31;4.57;;;1.60;;
36855;SDS011;22788;51.434;6.786;2022-07-29T02:46:59;2.53;;;1.55;;
36855;SDS011;22788;51.434;6.786;2022-07-29T02:49:30;5.30;;;1.77;;
36855;SDS011;22788;51.434;6.786;2022-07-29T02:51:58;4.50;;;1.70;;
36855;SDS011;22788;51.434;6.786;2022-07-29T02:54:29;2.25;;;1.52;;
36855;SDS011;22788;51.434;6.786;2022-07-29T02:56:57;2.35;;;1.48;;
36855;SDS011;22788;51.434;6.786;2022-07-29T02:59:25;8.75;;;1.80;;
36855;SDS011;22788;51.434;6.786;2022-07-29T03:01:52;4.75;;;1.92;;
36855;SDS011;22788;51.434;6.786;2022-07-29T03:04:20;2.42;;;1.65;;
36855;SDS011;22788;51.434;6.786;2022-07-29T03:06:48;7.57;;;1.88;;
36855;SDS011;22788;51.434;6.786;2022-07-29T03:09:15;4.47;;;1.88;;
36855;SDS011;22788;51.434;6.786;2022-07-29T03:11:43;4.45;;;2.28;;
36855;SDS011;22788;51.434;6.786;2022-07-29T03:14:10;4.20;;;2.00;;
36855;SDS011;22788;51.434;6.786;2022-07-29T03:16:36;5.15;;;2.30;;
36855;SDS011;22788;51.434;6.786;2022-07-29T03:19:03;3.40;;;1.52;;
36855;SDS011;22788;51.434;6.786;2022-07-29T03:21:30;5.45;;;1.98;;
36855;SDS011;22788;51.434;6.786;2022-07-29T03:23:56;7.07;;;1.90;;
36855;SDS011;22788;51.434;6.786;2022-07-29T03:26:23;6.63;;;2.00;;
36855;SDS011;22788;51.434;6.786;2022-07-29T03:28:50;4.82;;;2.10;;
36855;SDS011;22788;51.434;6.786;2022-07-29T03:31:17;4.95;;;1.52;;
36855;SDS011;22788;51.434;6.786;2022-07-29T03:33:43;5.28;;;1.92;;
36855;SDS011;22788;51.434;6.786;2022-07-29T03:36:09;2.67;;;1.67;;
36855;SDS011;22788;51.434;6.786;2022-07-29T03:38:36;2.53;;;2.00;;
36855;SDS011;22788;51.434;6.786;2022-07-29T03:41:05;6.13;;;1.85;;
36855;SDS011;22788;51.434;6.786;2022-07-29T03:43:32;3.88;;;1.83;;
36855;SDS011;22788;51.434;6.786;2022-07-29T03:46:01;3.03;;;1.67;;
36855;SDS011;22788;51.434;6.786;2022-07-29T03:48:28;4.50;;;1.77;;
36855;SDS011;22788;51.434;6.786;2022-07-29T03:50:56;2.42;;;1.63;;
36855;SDS011;22788;51.434;6.786;2022-07-29T03:53:23;3.03;;;1.55;;
36855;SDS011;22788;51.434;6.786;2022-07-29T03:55:50;2.58;;;1.58;;
36855;SDS011;22788;51.434;6.786;2022-07-29T03:58:18;2.33;;;1.42;;
36855;SDS011;22788;51.434;6.786;2022-07-29T04:00:45;1.85;;;1.45;;
36855;SDS011;22788;51.434;6.786;2022-07-29T04:03:13;4.13;;;1.70;;
36855;SDS011;22788;51.434;6.786;2022-07-29T04:05:40;3.95;;;2.05;;
36855;SDS011;22788;51.434;6.786;2022-07-29T04:08:06;2.55;;;1.42;;
36855;SDS011;22788;51.434;6.786;2022-07-29T04:10:33;4.80;;;1.85;;
36855;SDS011;22788;51.434;6.786;2022-07-29T04:12:59;6.35;;;1.85;;
36855;SDS011;22788;51.434;6.786;2022-07-29T04:15:25;4.05;;;2.05;;
36855;SDS011;22788;51.434;6.786;2022-07-29T04:17:52;6.78;;;1.90;;
36855;SDS011;22788;51.434;6.786;2022-07-29T04:20:20;3.80;;;2.08;;
36855;SDS011;22788;51.434;6.786;2022-07-29T04:22:46;4.50;;;1.95;;
36855;SDS011;22788;51.434;6.786;2022-07-29T04:25:13;3.78;;;2.08;;
36855;SDS011;22788;51.434;6.786;2022-07-29T04:27:39;3.50;;;1.98;;
36855;SDS011;22788;51.434;6.786;2022-07-29T04:30:06;3.20;;;2.00;;
36855;SDS011;22788;51.434;6.786;2022-07-29T04:32:32;3.35;;;1.85;;
36855;SDS011;22788;51.434;6.786;2022-07-29T04:34:59;4.63;;;2.40;;
36855;SDS011;22788;51.434;6.786;2022-07-29T04:37:26;5.70;;;2.00;;
36855;SDS011;22788;51.434;6.786;2022-07-29T04:39:53;4.70;;;1.80;;
36855;SDS011;22788;51.434;6.786;2022-07-29T04:42:19;7.53;;;2.28;;
36855;SDS011;22788;51.434;6.786;2022-07-29T04:44:46;2.92;;;1.88;;
36855;SDS011;22788;51.434;6.786;2022-07-29T04:47:12;5.30;;;1.90;;
36855;SDS011;22788;51.434;6.786;2022-07-29T04:49:38;5.05;;;1.90;;
36855;SDS011;22788;51.434;6.786;2022-07-29T04:52:05;4.70;;;1.80;;
36855;SDS011;22788;51.434;6.786;2022-07-29T04:54:33;2.55;;;1.70;;
36855;SDS011;22788;51.434;6.786;2022-07-29T04:56:59;3.67;;;2.05;;
36855;SDS011;22788;51.434;6.786;2022-07-29T04:59:26;5.45;;;2.10;;
36855;SDS011;22788;51.434;6.786;2022-07-29T05:01:52;4.78;;;1.77;;
36855;SDS011;22788;51.434;6.786;2022-07-29T05:04:18;3.75;;;1.80;;
36855;SDS011;22788;51.434;6.786;2022-07-29T05:06:45;2.22;;;1.77;;
36855;SDS011;22788;51.434;6.786;2022-07-29T05:09:11;2.13;;;1.60;;
36855;SDS011;22788;51.434;6.786;2022-07-29T05:11:39;5.68;;;1.90;;
36855;SDS011;22788;51.434;6.786;2022-07-29T05:14:05;3.90;;;1.77;;
36855;SDS011;22788;51.434;6.786;2022-07-29T05:16:32;2.35;;;1.65;;
36855;SDS011;22788;51.434;6.786;2022-07-29T05:18:58;2.58;;;2.10;;
36855;SDS011;22788;51.434;6.786;2022-07-29T05:21:24;2.20;;;1.65;;
36855;SDS011;22788;51.434;6.786;2022-07-29T05:23:51;2.78;;;1.80;;
36855;SDS011;22788;51.434;6.786;2022-07-29T05:26:17;1.58;;;1.30;;
36855;SDS011;22788;51.434;6.786;2022-07-29T05:28:45;4.15;;;1.67;;
36855;SDS011;22788;51.434;6.786;2022-07-29T05:31:11;4.60;;;1.98;;
36855;SDS011;22788;51.434;6.786;2022-07-29T05:33:38;2.58;;;1.80;;
36855;SDS011;22788;51.434;6.786;2022-07-29T05:36:04;1.88;;;1.50;;
36855;SDS011;22788;51.434;6.786;2022-07-29T05:38:31;2.13;;;1.58;;
36855;SDS011;22788;51.434;6.786;2022-07-29T05:40:57;3.45;;;1.75;;
36855;SDS011;22788;51.434;6.786;2022-07-29T05:43:23;1.52;;;1.42;;
36855;SDS011;22788;51.434;6.786;2022-07-29T05:45:51;2.50;;;1.65;;
36855;SDS011;22788;51.434;6.786;2022-07-29T05:48:18;4.80;;;1.92;;
36855;SDS011;22788;51.434;6.786;2022-07-29T05:50:44;2.28;;;1.55;;
36855;SDS011;22788;51.434;6.786;2022-07-29T05:53:10;3.47;;;2.00;;
36855;SDS011;22788;51.434;6.786;2022-07-29T05:55:37;4.55;;;2.08;;
36855;SDS011;22788;51.434;6.786;2022-07-29T05:58:03;4.18;;;1.73;;
36855;SDS011;22788;51.434;6.786;2022-07-29T06:00:30;3.05;;;2.03;;
36855;SDS011;22788;51.434;6.786;2022-07-29T06:02:57;2.30;;;1.77;;
36855;SDS011;22788;51.434;6.786;2022-07-29T06:05:24;2.22;;;1.77;;
36855;SDS011;22788;51.434;6.786;2022-07-29T06:07:50;1.42;;;1.30;;
36855;SDS011;22788;51.434;6.786;2022-07-29T06:10:16;2.60;;;1.80;;
36855;SDS011;22788;51.434;6.786;2022-07-29T06:12:43;3.13;;;1.90;;
36855;SDS011;22788;51.434;6.786;2022-07-29T06:15:09;2.53;;;1.75;;
36855;SDS011;22788;51.434;6.786;2022-07-29T06:17:36;5.20;;;1.80;;
36855;SDS011;22788;51.434;6.786;2022-07-29T06:20:05;4.63;;;1.80;;
36855;SDS011;22788;51.434;6.786;2022-07-29T06:22:31;4.00;;;1.80;;
36855;SDS011;22788;51.434;6.786;2022-07-29T06:24:58;3.78;;;1.73;;
36855;SDS011;22788;51.434;6.786;2022-07-29T06:27:24;7.10;;;2.20;;
36855;SDS011;22788;51.434;6.786;2022-07-29T06:29:50;2.63;;;1.75;;
36855;SDS011;22788;51.434;6.786;2022-07-29T06:32:17;3.67;;;2.00;;
36855;SDS011;22788;51.434;6.786;2022-07-29T06:34:43;4.13;;;1.80;;
36855;SDS011;22788;51.434;6.786;2022-07-29T06:37:11;2.03;;;1.90;;
36855;SDS011;22788;51.434;6.786;2022-07-29T06:39:37;3.42;;;1.92;;
36855;SDS011;22788;51.434;6.786;2022-07-29T06:42:04;1.80;;;1.70;;
36855;SDS011;22788;51.434;6.786;2022-07-29T06:44:30;4.63;;;1.98;;
36855;SDS011;22788;51.434;6.786;2022-07-29T06:46:57;4.53;;;2.22;;
36855;SDS011;22788;51.434;6.786;2022-07-29T06:49:23;5.32;;;2.28;;
36855;SDS011;22788;51.434;6.786;2022-07-29T06:51:50;2.85;;;1.38;;
36855;SDS011;22788;51.434;6.786;2022-07-29T06:54:17;4.40;;;2.13;;
36855;SDS011;22788;51.434;6.786;2022-07-29T06:56:44;3.35;;;2.10;;
36855;SDS011;22788;51.434;6.786;2022-07-29T06:59:11;2.30;;;1.88;;
36855;SDS011;22788;51.434;6.786;2022-07-29T07:01:38;2.38;;;1.92;;
36855;SDS011;22788;51.434;6.786;2022-07-29T07:04:04;2.30;;;1.67;;
36855;SDS011;22788;51.434;6.786;2022-07-29T07:06:31;3.33;;;1.98;;
36855;SDS011;22788;51.434;6.786;2022-07-29T07:08:57;2.40;;;1.77;;
36855;SDS011;22788;51.434;6.786;2022-07-29T07:11:25;3.30;;;1.88;;
36855;SDS011;22788;51.434;6.786;2022-07-29T07:13:51;2.40;;;1.50;;
36855;SDS011;22788;51.434;6.786;2022-07-29T07:16:18;2.05;;;1.73;;
36855;SDS011;22788;51.434;6.786;2022-07-29T07:18:44;2.30;;;1.90;;
36855;SDS011;22788;51.434;6.786;2022-07-29T07:21:11;5.20;;;2.30;;
36855;SDS011;22788;51.434;6.786;2022-07-29T07:23:37;4.53;;;1.92;;
36855;SDS011;22788;51.434;6.786;2022-07-29T07:26:03;2.63;;;1.80;;
36855;SDS011;22788;51.434;6.786;2022-07-29T07:28:31;4.32;;;2.33;;
36855;SDS011;22788;51.434;6.786;2022-07-29T07:30:57;4.65;;;2.00;;
36855;SDS011;22788;51.434;6.786;2022-07-29T07:33:24;1.67;;;1.52;;
36855;SDS011;22788;51.434;6.786;2022-07-29T07:35:50;3.45;;;2.10;;
36855;SDS011;22788;51.434;6.786;2022-07-29T07:38:17;4.45;;;2.17;;
36855;SDS011;22788;51.434;6.786;2022-07-29T07:40:43;2.70;;;1.80;;
36855;SDS011;22788;51.434;6.786;2022-07-29T07:43:09;4.75;;;2.13;;
36855;SDS011;22788;51.434;6.786;2022-07-29T07:45:37;3.03;;;2.20;;
36855;SDS011;22788;51.434;6.786;2022-07-29T07:48:04;3.22;;;2.20;;
36855;SDS011;22788;51.434;6.786;2022-07-29T07:50:30;4.20;;;2.10;;
36855;SDS011;22788;51.434;6.786;2022-07-29T07:52:57;2.22;;;1.70;;
36855;SDS011;22788;51.434;6.786;2022-07-29T07:55:23;2.55;;;1.83;;
36855;SDS011;22788;51.434;6.786;2022-07-29T07:57:50;4.43;;;2.30;;
36855;SDS011;22788;51.434;6.786;2022-07-29T08:00:16;3.40;;;1.90;;
36855;SDS011;22788;51.434;6.786;2022-07-29T08:02:44;3.92;;;2.17;;
36855;SDS011;22788;51.434;6.786;2022-07-29T08:05:10;3.40;;;2.50;;
36855;SDS011;22788;51.434;6.786;2022-07-29T08:07:37;5.30;;;2.10;;
36855;SDS011;22788;51.434;6.786;2022-07-29T08:10:04;2.47;;;1.92;;
36855;SDS011;22788;51.434;6.786;2022-07-29T08:12:30;3.53;;;2.15;;
36855;SDS011;22788;51.434;6.786;2022-07-29T08:14:57;4.00;;;2.15;;
36855;SDS011;22788;51.434;6.786;2022-07-29T08:17:23;3.20;;;1.92;;
36855;SDS011;22788;51.434;6.786;2022-07-29T08:19:51;3.35;;;1.70;;
36855;SDS011;22788;51.434;6.786;2022-07-29T08:22:17;3.50;;;2.08;;
36855;SDS011;22788;51.434;6.786;2022-07-29T08:24:44;5.30;;;2.30;;
36855;SDS011;22788;51.434;6.786;2022-07-29T08:27:10;2.83;;;2.00;;
36855;SDS011;22788;51.434;6.786;2022-07-29T08:29:37;3.97;;;2.00;;
36855;SDS011;22788;51.434;6.786;2022-07-29T08:32:03;6.78;;;2.22;;
36855;SDS011;22788;51.434;6.786;2022-07-29T08:34:30;6.18;;;2.30;;
36855;SDS011;22788;51.434;6.786;2022-07-29T08:36:58;4.32;;;2.10;;
36855;SDS011;22788;51.434;6.786;2022-07-29T08:39:24;3.90;;;2.15;;
36855;SDS011;22788;51.434;6.786;2022-07-29T08:41:50;6.53;;;2.25;;
36855;SDS011;22788;51.434;6.786;2022-07-29T08:44:16;3.40;;;2.20;;
36855;SDS011;22788;51.434;6.786;2022-07-29T08:46:43;4.18;;;2.42;;
36855;SDS011;22788;51.434;6.786;2022-07-29T08:49:09;4.22;;;2.40;;
36855;SDS011;22788;51.434;6.786;2022-07-29T08:51:36;3.00;;;2.15;;
36855;SDS011;22788;51.434;6.786;2022-07-29T08:54:06;4.88;;;2.22;;
36855;SDS011;22788;51.434;6.786;2022-07-29T08:56:34;5.63;;;3.03;;
36855;SDS011;22788;51.434;6.786;2022-07-29T08:59:02;6.80;;;2.55;;
36855;SDS011;22788;51.434;6.786;2022-07-29T09:01:29;4.75;;;2.60;;
36855;SDS011;22788;51.434;6.786;2022-07-29T09:03:57;4.53;;;2.85;;
36855;SDS011;22788;51.434;6.786;2022-07-29T09:06:24;6.30;;;2.58;;
36855;SDS011;22788;51.434;6.786;2022-07-29T09:08:54;4.13;;;2.20;;
36855;SDS011;22788;51.434;6.786;2022-07-29T09:11:26;5.97;;;3.08;;
36855;SDS011;22788;51.434;6.786;2022-07-29T09:13:52;6.53;;;3.10;;
36855;SDS011;22788;51.434;6.786;2022-07-29T09:16:18;6.53;;;3.03;;
36855;SDS011;22788;51.434;6.786;2022-07-29T09:18:45;4.97;;;2.30;;
36855;SDS011;22788;51.434;6.786;2022-07-29T09:21:12;4.50;;;2.35;;
36855;SDS011;22788;51.434;6.786;2022-07-29T09:23:39;4.90;;;3.00;;
36855;SDS011;22788;51.434;6.786;2022-07-29T09:26:05;5.20;;;3.00;;
36855;SDS011;22788;51.434;6.786;2022-07-29T09:28:32;5.03;;;2.75;;
36855;SDS011;22788;51.434;6.786;2022-07-29T09:30:59;5.18;;;2.55;;
36855;SDS011;22788;51.434;6.786;2022-07-29T09:33:30;3.80;;;2.58;;
36855;SDS011;22788;51.434;6.786;2022-07-29T09:35:58;3.78;;;2.60;;
36855;SDS011;22788;51.434;6.786;2022-07-29T09:38:25;5.00;;;3.42;;
36855;SDS011;22788;51.434;6.786;2022-07-29T09:40:55;7.20;;;3.58;;
36855;SDS011;22788;51.434;6.786;2022-07-29T09:43:22;3.05;;;2.72;;
36855;SDS011;22788;51.434;6.786;2022-07-29T09:45:49;10.88;;;3.85;;
36855;SDS011;22788;51.434;6.786;2022-07-29T09:48:16;5.10;;;3.38;;
36855;SDS011;22788;51.434;6.786;2022-07-29T09:50:43;5.28;;;3.13;;
36855;SDS011;22788;51.434;6.786;2022-07-29T09:53:10;10.23;;;3.42;;
36855;SDS011;22788;51.434;6.786;2022-07-29T09:55:47;6.30;;;3.75;;
36855;SDS011;22788;51.434;6.786;2022-07-29T09:58:16;6.53;;;3.28;;
36855;SDS011;22788;51.434;6.786;2022-07-29T10:00:43;7.63;;;3.50;;
36855;SDS011;22788;51.434;6.786;2022-07-29T10:03:12;9.18;;;3.80;;
36855;SDS011;22788;51.434;6.786;2022-07-29T10:05:38;4.60;;;2.65;;
36855;SDS011;22788;51.434;6.786;2022-07-29T10:08:05;5.38;;;2.80;;
36855;SDS011;22788;51.434;6.786;2022-07-29T10:10:32;4.80;;;2.92;;
36855;SDS011;22788;51.434;6.786;2022-07-29T10:12:59;6.72;;;2.90;;
36855;SDS011;22788;51.434;6.786;2022-07-29T10:15:27;3.83;;;2.83;;
36855;SDS011;22788;51.434;6.786;2022-07-29T10:17:55;4.63;;;2.88;;
36855;SDS011;22788;51.434;6.786;2022-07-29T10:20:23;3.97;;;2.70;;
36855;SDS011;22788;51.434;6.786;2022-07-29T10:22:51;5.28;;;2.80;;
36855;SDS011;22788;51.434;6.786;2022-07-29T10:25:18;6.18;;;3.13;;
36855;SDS011;22788;51.434;6.786;2022-07-29T10:27:45;4.70;;;2.95;;
36855;SDS011;22788;51.434;6.786;2022-07-29T10:30:12;3.88;;;2.65;;
36855;SDS011;22788;51.434;6.786;2022-07-29T10:32:40;7.15;;;2.75;;
36855;SDS011;22788;51.434;6.786;2022-07-29T10:35:19;4.28;;;3.03;;
36855;SDS011;22788;51.434;6.786;2022-07-29T10:40:36;6.63;;;3.67;;
36855;SDS011;22788;51.434;6.786;2022-07-29T10:43:06;5.68;;;3.30;;
36855;SDS011;22788;51.434;6.786;2022-07-29T10:45:35;12.05;;;4.30;;
36855;SDS011;22788;51.434;6.786;2022-07-29T10:48:03;7.10;;;4.75;;
36855;SDS011;22788;51.434;6.786;2022-07-29T10:50:44;9.68;;;3.47;;
36855;SDS011;22788;51.434;6.786;2022-07-29T10:53:17;5.88;;;3.03;;
36855;SDS011;22788;51.434;6.786;2022-07-29T10:55:46;6.80;;;3.30;;
36855;SDS011;22788;51.434;6.786;2022-07-29T10:58:13;5.53;;;3.30;;
36855;SDS011;22788;51.434;6.786;2022-07-29T11:00:40;8.20;;;4.50;;
36855;SDS011;22788;51.434;6.786;2022-07-29T11:03:06;6.47;;;3.58;;
36855;SDS011;22788;51.434;6.786;2022-07-29T11:08:19;9.00;;;3.38;;
36855;SDS011;22788;51.434;6.786;2022-07-29T11:10:48;10.25;;;4.13;;
36855;SDS011;22788;51.434;6.786;2022-07-29T11:16:13;5.90;;;3.47;;
36855;SDS011;22788;51.434;6.786;2022-07-29T11:21:40;6.30;;;2.97;;
36855;SDS011;22788;51.434;6.786;2022-07-29T11:24:14;5.68;;;3.25;;
36855;SDS011;22788;51.434;6.786;2022-07-29T11:26:42;4.90;;;3.42;;
36855;SDS011;22788;51.434;6.786;2022-07-29T11:29:16;5.07;;;2.92;;
36855;SDS011;22788;51.434;6.786;2022-07-29T11:31:43;12.80;;;3.00;;
36855;SDS011;22788;51.434;6.786;2022-07-29T11:34:20;5.22;;;3.00;;
36855;SDS011;22788;51.434;6.786;2022-07-29T11:39:42;5.80;;;3.00;;
36855;SDS011;22788;51.434;6.786;2022-07-29T11:45:05;7.75;;;3.55;;
36855;SDS011;22788;51.434;6.786;2022-07-29T11:47:33;8.00;;;3.53;;
36855;SDS011;22788;51.434;6.786;2022-07-29T11:50:02;7.15;;;3.97;;
36855;SDS011;22788;51.434;6.786;2022-07-29T11:52:32;10.43;;;3.85;;
36855;SDS011;22788;51.434;6.786;2022-07-29T11:54:58;12.52;;;5.03;;
36855;SDS011;22788;51.434;6.786;2022-07-29T11:57:27;8.73;;;4.15;;
36855;SDS011;22788;51.434;6.786;2022-07-29T11:59:55;9.05;;;4.57;;
36855;SDS011;22788;51.434;6.786;2022-07-29T12:02:23;8.75;;;3.67;;
36855;SDS011;22788;51.434;6.786;2022-07-29T12:04:49;9.80;;;3.35;;
36855;SDS011;22788;51.434;6.786;2022-07-29T12:07:16;11.75;;;3.28;;
36855;SDS011;22788;51.434;6.786;2022-07-29T12:09:49;9.60;;;4.18;;
36855;SDS011;22788;51.434;6.786;2022-07-29T12:12:15;12.82;;;4.85;;
36855;SDS011;22788;51.434;6.786;2022-07-29T12:14:42;9.20;;;3.45;;
36855;SDS011;22788;51.434;6.786;2022-07-29T12:17:24;7.03;;;3.67;;
36855;SDS011;22788;51.434;6.786;2022-07-29T12:19:50;5.70;;;4.13;;
36855;SDS011;22788;51.434;6.786;2022-07-29T12:22:23;6.72;;;3.17;;
36855;SDS011;22788;51.434;6.786;2022-07-29T12:24:50;8.95;;;3.97;;
36855;SDS011;22788;51.434;6.786;2022-07-29T12:27:16;7.28;;;3.53;;
36855;SDS011;22788;51.434;6.786;2022-07-29T12:29:43;10.57;;;4.03;;
36855;SDS011;22788;51.434;6.786;2022-07-29T12:32:11;9.60;;;3.75;;
36855;SDS011;22788;51.434;6.786;2022-07-29T12:34:37;5.15;;;3.78;;
36855;SDS011;22788;51.434;6.786;2022-07-29T12:37:04;8.88;;;3.95;;
36855;SDS011;22788;51.434;6.786;2022-07-29T12:39:30;9.25;;;4.13;;
36855;SDS011;22788;51.434;6.786;2022-07-29T12:41:56;5.32;;;3.22;;
36855;SDS011;22788;51.434;6.786;2022-07-29T12:44:23;8.77;;;3.45;;
36855;SDS011;22788;51.434;6.786;2022-07-29T12:47:00;11.68;;;3.78;;
36855;SDS011;22788;51.434;6.786;2022-07-29T12:49:28;4.70;;;3.25;;
36855;SDS011;22788;51.434;6.786;2022-07-29T12:51:55;4.30;;;3.13;;
36855;SDS011;22788;51.434;6.786;2022-07-29T12:54:21;14.73;;;3.47;;
36855;SDS011;22788;51.434;6.786;2022-07-29T12:56:57;5.57;;;3.88;;
36855;SDS011;22788;51.434;6.786;2022-07-29T12:59:23;8.43;;;3.40;;
36855;SDS011;22788;51.434;6.786;2022-07-29T13:01:50;12.65;;;4.32;;
36855;SDS011;22788;51.434;6.786;2022-07-29T13:04:24;11.40;;;3.72;;
36855;SDS011;22788;51.434;6.786;2022-07-29T13:06:57;8.30;;;3.95;;
36855;SDS011;22788;51.434;6.786;2022-07-29T13:09:24;9.88;;;3.53;;
36855;SDS011;22788;51.434;6.786;2022-07-29T13:12:01;7.30;;;3.90;;
36855;SDS011;22788;51.434;6.786;2022-07-29T13:14:33;7.47;;;3.50;;
36855;SDS011;22788;51.434;6.786;2022-07-29T13:17:00;12.10;;;3.88;;
36855;SDS011;22788;51.434;6.786;2022-07-29T13:19:33;8.10;;;4.15;;
36855;SDS011;22788;51.434;6.786;2022-07-29T13:22:01;8.43;;;4.25;;
36855;SDS011;22788;51.434;6.786;2022-07-29T13:24:27;5.00;;;3.30;;
36855;SDS011;22788;51.434;6.786;2022-07-29T13:26:53;9.77;;;3.10;;
36855;SDS011;22788;51.434;6.786;2022-07-29T13:29:20;4.90;;;3.70;;
36855;SDS011;22788;51.434;6.786;2022-07-29T13:31:46;7.80;;;4.00;;
36855;SDS011;22788;51.434;6.786;2022-07-29T13:34:12;6.72;;;3.53;;
36855;SDS011;22788;51.434;6.786;2022-07-29T13:36:39;8.32;;;3.80;;
36855;SDS011;22788;51.434;6.786;2022-07-29T13:39:07;8.90;;;4.00;;
36855;SDS011;22788;51.434;6.786;2022-07-29T13:41:33;10.18;;;3.92;;
36855;SDS011;22788;51.434;6.786;2022-07-29T13:43:59;6.63;;;3.42;;
36855;SDS011;22788;51.434;6.786;2022-07-29T13:46:26;4.95;;;3.40;;
36855;SDS011;22788;51.434;6.786;2022-07-29T13:48:52;7.60;;;3.00;;
36855;SDS011;22788;51.434;6.786;2022-07-29T13:51:19;5.65;;;3.45;;
36855;SDS011;22788;51.434;6.786;2022-07-29T13:53:45;6.00;;;3.90;;
36855;SDS011;22788;51.434;6.786;2022-07-29T13:56:13;7.30;;;3.72;;
36855;SDS011;22788;51.434;6.786;2022-07-29T13:58:39;8.43;;;3.55;;
36855;SDS011;22788;51.434;6.786;2022-07-29T14:01:05;10.82;;;3.72;;
36855;SDS011;22788;51.434;6.786;2022-07-29T14:03:32;8.23;;;3.78;;
36855;SDS011;22788;51.434;6.786;2022-07-29T14:05:58;9.98;;;3.60;;
36855;SDS011;22788;51.434;6.786;2022-07-29T14:08:25;6.78;;;3.13;;
36855;SDS011;22788;51.434;6.786;2022-07-29T14:10:52;4.57;;;2.85;;
36855;SDS011;22788;51.434;6.786;2022-07-29T14:13:19;6.57;;;3.08;;
36855;SDS011;22788;51.434;6.786;2022-07-29T14:15:46;8.07;;;2.83;;
36855;SDS011;22788;51.434;6.786;2022-07-29T14:18:12;6.15;;;2.90;;
36855;SDS011;22788;51.434;6.786;2022-07-29T14:20:38;4.38;;;2.55;;
36855;SDS011;22788;51.434;6.786;2022-07-29T14:23:05;6.53;;;3.38;;
36855;SDS011;22788;51.434;6.786;2022-07-29T14:25:31;4.10;;;2.78;;
36855;SDS011;22788;51.434;6.786;2022-07-29T14:27:58;5.18;;;2.78;;
36855;SDS011;22788;51.434;6.786;2022-07-29T14:30:25;5.75;;;2.58;;
36855;SDS011;22788;51.434;6.786;2022-07-29T14:32:52;7.97;;;3.00;;
36855;SDS011;22788;51.434;6.786;2022-07-29T14:35:18;4.45;;;2.53;;
36855;SDS011;22788;51.434;6.786;2022-07-29T14:37:44;6.82;;;2.75;;
36855;SDS011;22788;51.434;6.786;2022-07-29T14:40:11;5.13;;;3.22;;
36855;SDS011;22788;51.434;6.786;2022-07-29T14:42:37;6.65;;;3.03;;
36855;SDS011;22788;51.434;6.786;2022-07-29T14:45:05;6.20;;;3.08;;
36855;SDS011;22788;51.434;6.786;2022-07-29T14:47:33;8.00;;;2.65;;
36855;SDS011;22788;51.434;6.786;2022-07-29T14:50:00;4.55;;;2.67;;
36855;SDS011;22788;51.434;6.786;2022-07-29T14:52:26;5.13;;;3.28;;
36855;SDS011;22788;51.434;6.786;2022-07-29T14:54:52;6.93;;;2.78;;
36855;SDS011;22788;51.434;6.786;2022-07-29T14:57:19;3.80;;;2.80;;
36855;SDS011;22788;51.434;6.786;2022-07-29T14:59:45;4.43;;;2.22;;
36855;SDS011;22788;51.434;6.786;2022-07-29T15:02:12;6.63;;;2.33;;
36855;SDS011;22788;51.434;6.786;2022-07-29T15:04:39;4.10;;;2.60;;
36855;SDS011;22788;51.434;6.786;2022-07-29T15:07:06;7.85;;;2.63;;